^^
Datos históricos de la estación: Murcia-Puente Tocinos
Diario Informe para Enero 12, 2019 Unidades:  Métrico    Inglés   Ambas
Diario Semanal Mensual Anual Configurable
  Máximo: Mínimo: Media:
Temperatura: 14.8 °C 1.3 °C 7.1 °C
Punto de rocio: -0.1 °C -5.9 °C -3.4 °C
Humedad: 71% 27% 49%
Velocidad viento: 9.5km/h 0.0km/h 5km/h
Racha viento: 14.8km/h - -
Viento- - SSW
Presión: 1029.7 hPa 1025.7 hPa -
Precipitación: 0.0 mm    
Historical Graphs
 
 
Tabla de datos para Enero 12, 2019
Hora Temperatura Punto de rocio Presión Viento Velocidad viento Racha viento Humedad Intensidad lluvia(por hora) Nubes
00:00 5.4 °C -2.9 °C 1026.5 hPa SW 8.0 km/h 11.3 km/h 55% 0.0 mm CLR
00:05 5.5 °C -3.1 °C 1026.5 hPa SSW 6.4 km/h 11.1 km/h 54% 0.0 mm CLR
00:10 5.6 °C -3.0 °C 1026.5 hPa SW 8.4 km/h 9.3 km/h 54% 0.0 mm CLR
00:15 5.7 °C -2.9 °C 1026.5 hPa SW 8.4 km/h 7.4 km/h 54% 0.0 mm CLR
00:20 5.7 °C -3.7 °C 1026.5 hPa SSW 6.4 km/h 9.5 km/h 51% 0.0 mm CLR
00:25 5.8 °C -3.1 °C 1026.5 hPa SSW 6.4 km/h 10.0 km/h 53% 0.0 mm CLR
00:30 5.6 °C -3.0 °C 1026.5 hPa SSW 6.9 km/h 11.1 km/h 54% 0.0 mm CLR
00:35 5.3 °C -3.3 °C 1026.5 hPa South 6.9 km/h 7.4 km/h 54% 0.0 mm CLR
00:40 5.1 °C -3.2 °C 1026.5 hPa SSE 5.8 km/h 5.6 km/h 55% 0.0 mm CLR
00:45 4.9 °C -2.9 °C 1026.5 hPa SSE 5.8 km/h 7.4 km/h 57% 0.0 mm CLR
00:50 4.5 °C -3.3 °C 1026.5 hPa South 5.8 km/h 9.3 km/h 57% 0.0 mm CLR
00:55 4.2 °C -3.1 °C 1026.5 hPa South 5.8 km/h 9.3 km/h 59% 0.0 mm CLR
01:00 4.1 °C -3.2 °C 1026.5 hPa South 8.0 km/h 11.3 km/h 59% 0.0 mm CLR
01:05 4.1 °C -3.2 °C 1026.4 hPa SSW 6.9 km/h 10.0 km/h 59% 0.0 mm CLR
01:10 4.3 °C -3.5 °C 1026.4 hPa SW 7.6 km/h 9.3 km/h 57% 0.0 mm CLR
01:15 4.5 °C -3.8 °C 1026.4 hPa SSW 7.6 km/h 9.3 km/h 55% 0.0 mm CLR
01:20 4.7 °C -3.8 °C 1026.4 hPa SSW 7.6 km/h 9.3 km/h 54% 0.0 mm CLR
01:25 4.9 °C -3.9 °C 1026.4 hPa SW 7.6 km/h 7.4 km/h 53% 0.0 mm CLR
01:30 4.9 °C -3.9 °C 1026.4 hPa SW 6.4 km/h 5.6 km/h 53% 0.0 mm CLR
01:35 4.9 °C -3.9 °C 1026.4 hPa SW 6.4 km/h 7.4 km/h 53% 0.0 mm CLR
01:40 4.8 °C -4.2 °C 1026.4 hPa West 3.9 km/h 7.4 km/h 52% 0.0 mm CLR
01:45 4.5 °C -4.5 °C 1026.4 hPa West 3.9 km/h 9.3 km/h 52% 0.0 mm CLR
01:50 4.3 °C -4.4 °C 1026.4 hPa West 6.4 km/h 7.4 km/h 53% 0.0 mm CLR
01:55 4.2 °C -4.6 °C 1026.4 hPa West 6.4 km/h 5.6 km/h 53% 0.0 mm CLR
02:00 4.2 °C -4.3 °C 1026.4 hPa West 3.2 km/h 9.7 km/h 54% 0.0 mm CLR
02:05 4.0 °C -4.5 °C 1026.4 hPa West 3.9 km/h 5.6 km/h 54% 0.0 mm CLR
02:10 3.9 °C -4.3 °C 1026.4 hPa SSW 3.9 km/h 5.6 km/h 55% 0.0 mm CLR
02:15 3.9 °C -4.1 °C 1026.4 hPa West 3.9 km/h 7.4 km/h 56% 0.0 mm CLR
02:20 3.9 °C -3.8 °C 1026.5 hPa West 4.7 km/h 3.7 km/h 57% 0.0 mm CLR
02:25 3.8 °C -3.9 °C 1026.5 hPa West 4.7 km/h 3.7 km/h 57% 0.0 mm CLR
02:30 3.7 °C -3.8 °C 1026.5 hPa West 2.3 km/h 3.7 km/h 58% 0.0 mm CLR
02:35 3.7 °C -3.6 °C 1026.8 hPa West 2.3 km/h 3.7 km/h 59% 0.0 mm CLR
02:40 3.6 °C -3.4 °C 1026.8 hPa West 2.3 km/h 5.6 km/h 60% 0.0 mm CLR
02:45 3.6 °C -3.0 °C 1026.8 hPa SSW 2.3 km/h 9.3 km/h 62% 0.0 mm CLR
02:50 3.6 °C -2.8 °C 1026.8 hPa SW 5.8 km/h 11.9 km/h 63% 0.0 mm CLR
02:55 3.6 °C -2.8 °C 1026.8 hPa SW 5.8 km/h 7.6 km/h 63% 0.0 mm CLR
03:00 3.6 °C -3.2 °C 1026.8 hPa SW 8.0 km/h 11.3 km/h 61% 0.0 mm CLR
03:05 3.6 °C -3.2 °C 1026.8 hPa WSW 6.4 km/h 7.4 km/h 61% 0.0 mm CLR
03:10 3.6 °C -3.4 °C 1026.8 hPa SSW 6.9 km/h 9.3 km/h 60% 0.0 mm CLR
03:15 3.5 °C -3.8 °C 1026.8 hPa SSW 6.9 km/h 7.4 km/h 59% 0.0 mm CLR
03:20 3.5 °C -3.8 °C 1027.1 hPa SSW 5.8 km/h 11.1 km/h 59% 0.0 mm CLR
03:25 3.4 °C -4.1 °C 1027.1 hPa SSW 5.8 km/h 13.0 km/h 58% 0.0 mm CLR
03:30 3.3 °C -4.4 °C 1027.1 hPa SW 8.7 km/h 11.1 km/h 57% 0.0 mm CLR
03:35 3.3 °C -4.7 °C 1027.1 hPa WSW 8.7 km/h 11.1 km/h 56% 0.0 mm CLR
03:40 3.4 °C -4.8 °C 1027.1 hPa WSW 8.4 km/h 7.4 km/h 55% 0.0 mm CLR
03:45 3.4 °C -5.1 °C 1027.1 hPa SW 8.4 km/h 7.4 km/h 54% 0.0 mm CLR
03:50 3.4 °C -4.8 °C 1027.1 hPa SW 5.8 km/h 7.4 km/h 55% 0.0 mm CLR
03:55 3.4 °C -5.1 °C 1027.1 hPa SW 5.8 km/h 11.1 km/h 54% 0.0 mm CLR
04:00 3.4 °C -5.1 °C 1027.1 hPa SW 8.0 km/h 11.3 km/h 54% 0.0 mm CLR
04:05 3.5 °C -5.2 °C 1027.3 hPa SW 6.4 km/h 9.3 km/h 53% 0.0 mm CLR
04:10 3.6 °C -5.3 °C 1027.3 hPa SW 6.9 km/h 11.1 km/h 52% 0.0 mm CLR
04:15 3.6 °C -5.6 °C 1027.3 hPa WSW 6.9 km/h 7.4 km/h 51% 0.0 mm CLR
04:20 3.6 °C -5.9 °C 1027.1 hPa SW 6.4 km/h 7.4 km/h 50% 0.0 mm CLR
04:25 3.6 °C -5.9 °C 1027.1 hPa SW 6.4 km/h 9.3 km/h 50% 0.0 mm CLR
04:30 3.6 °C -5.9 °C 1027.1 hPa WSW 5.8 km/h 7.6 km/h 50% 0.0 mm CLR
04:35 3.6 °C -5.9 °C 1027.0 hPa WSW 5.8 km/h 5.6 km/h 50% 0.0 mm CLR
04:40 3.6 °C -4.8 °C 1027.0 hPa WSW 3.9 km/h 1.9 km/h 54% 0.0 mm CLR
04:45 3.4 °C -4.1 °C 1027.0 hPa WSW 3.9 km/h 4.7 km/h 58% 0.0 mm CLR
04:50 3.1 °C -3.5 °C 1027.1 hPa SSE 2.9 km/h 5.6 km/h 62% 0.0 mm CLR
04:55 2.7 °C -3.4 °C 1027.1 hPa SSE 2.9 km/h 7.4 km/h 64% 0.0 mm CLR
05:00 2.6 °C -3.6 °C 1027.1 hPa SSE 3.2 km/h 8.0 km/h 64% 0.0 mm CLR
05:05 2.6 °C -3.3 °C 1027.1 hPa SSE 4.7 km/h 7.4 km/h 65% 0.0 mm CLR
05:10 2.5 °C -3.4 °C 1027.1 hPa SSE 5.0 km/h 5.8 km/h 65% 0.0 mm CLR
05:15 2.4 °C -3.5 °C 1027.1 hPa SSE 5.0 km/h 3.7 km/h 65% 0.0 mm CLR
05:20 2.4 °C -3.5 °C 1027.2 hPa SSE 3.2 km/h 4.7 km/h 65% 0.0 mm CLR
05:25 2.4 °C -3.7 °C 1027.2 hPa SSE 3.2 km/h 7.4 km/h 64% 0.0 mm CLR
05:30 2.5 °C -3.4 °C 1027.2 hPa SE 3.9 km/h 7.4 km/h 65% 0.0 mm CLR
05:35 2.3 °C -3.4 °C 1027.2 hPa South 3.9 km/h 7.4 km/h 66% 0.0 mm CLR
05:40 2.1 °C -3.2 °C 1027.2 hPa SSE 5.8 km/h 7.6 km/h 68% 0.0 mm CLR
05:45 1.8 °C -3.3 °C 1027.2 hPa South 5.8 km/h 9.3 km/h 69% 0.0 mm CLR
05:50 1.7 °C -3.2 °C 1027.2 hPa SSE 5.8 km/h 7.4 km/h 70% 0.0 mm CLR
05:55 1.6 °C -3.3 °C 1027.2 hPa SSE 5.8 km/h 10.0 km/h 70% 0.0 mm CLR
06:00 1.4 °C -3.3 °C 1027.2 hPa SSE 8.0 km/h 9.7 km/h 71% 0.0 mm CLR
06:05 1.3 °C -3.4 °C 1027.2 hPa South 6.4 km/h 7.4 km/h 71% 0.0 mm CLR
06:10 1.3 °C -3.4 °C 1027.2 hPa South 6.4 km/h 8.4 km/h 71% 0.0 mm CLR
06:15 1.3 °C -3.4 °C 1027.2 hPa South 6.4 km/h 5.6 km/h 71% 0.0 mm CLR
06:20 1.3 °C -3.4 °C 1027.4 hPa South 5.0 km/h 7.4 km/h 71% 0.0 mm CLR
06:25 1.3 °C -3.4 °C 1027.4 hPa South 5.0 km/h 7.4 km/h 71% 0.0 mm CLR
06:30 1.4 °C -3.5 °C 1027.4 hPa SSE 4.7 km/h 7.4 km/h 70% 0.0 mm CLR
06:35 1.5 °C -3.6 °C 1027.2 hPa SSE 4.7 km/h 7.4 km/h 69% 0.0 mm CLR
06:40 1.5 °C -3.8 °C 1027.2 hPa South 5.0 km/h 7.4 km/h 68% 0.0 mm CLR
06:45 1.5 °C -3.9 °C 1027.2 hPa SSE 5.0 km/h 7.4 km/h 67% 0.0 mm CLR
06:50 1.6 °C -3.9 °C 1027.4 hPa SSE 5.8 km/h 9.5 km/h 67% 0.0 mm CLR
06:55 1.6 °C -4.1 °C 1027.4 hPa SSE 5.8 km/h 7.4 km/h 66% 0.0 mm CLR
07:00 1.6 °C -4.1 °C 1027.4 hPa SSE 4.8 km/h 8.0 km/h 66% 0.0 mm CLR
07:05 1.5 °C -4.4 °C 1027.5 hPa South 5.8 km/h 5.6 km/h 65% 0.0 mm CLR
07:10 1.6 °C -4.5 °C 1027.5 hPa SSW 4.7 km/h 9.3 km/h 64% 0.0 mm CLR
07:15 1.8 °C -4.5 °C 1027.5 hPa SSW 4.7 km/h 5.6 km/h 63% 0.0 mm CLR
07:20 2.0 °C -4.3 °C 1027.6 hPa WSW 5.0 km/h 5.6 km/h 63% 0.0 mm CLR
07:25 2.1 °C -4.4 °C 1027.6 hPa WSW 5.0 km/h 8.4 km/h 62% 0.0 mm CLR
07:30 2.1 °C -5.1 °C 1027.6 hPa SW 4.7 km/h 7.4 km/h 59% 0.0 mm CLR
07:35 2.1 °C -5.1 °C 1027.7 hPa SW 4.7 km/h 7.6 km/h 59% 0.0 mm CLR
07:40 2.2 °C -5.0 °C 1027.7 hPa South 5.8 km/h 9.3 km/h 59% 0.0 mm CLR
07:45 2.2 °C -4.8 °C 1027.7 hPa SSW 5.8 km/h 7.4 km/h 60% 0.0 mm CLR
07:50 2.2 °C -4.6 °C 1027.9 hPa SSW 5.0 km/h 7.4 km/h 61% 0.0 mm CLR
07:55 2.1 °C -4.7 °C 1027.9 hPa SSW 5.0 km/h 5.6 km/h 61% 0.0 mm CLR
08:00 2.0 °C -4.6 °C 1027.9 hPa SSW 3.2 km/h 8.0 km/h 62% 0.0 mm CLR
08:05 1.9 °C -4.6 °C 1028.0 hPa SSE 4.7 km/h 7.4 km/h 62% 0.0 mm CLR
08:10 1.7 °C -4.8 °C 1028.0 hPa South 4.7 km/h 5.8 km/h 62% 0.0 mm CLR
08:15 1.6 °C -4.9 °C 1028.0 hPa South 4.7 km/h 7.4 km/h 62% 0.0 mm CLR
08:20 1.6 °C -5.1 °C 1028.0 hPa SW 5.0 km/h 7.4 km/h 61% 0.0 mm CLR
08:25 1.9 °C -5.3 °C 1028.0 hPa West 5.0 km/h 5.8 km/h 59% 0.0 mm CLR
08:30 2.1 °C -5.6 °C 1028.0 hPa WSW 5.0 km/h 7.4 km/h 57% 0.0 mm CLR
08:35 2.2 °C -5.7 °C 1028.2 hPa WSW 5.0 km/h 5.6 km/h 56% 0.0 mm CLR
08:40 2.3 °C -5.3 °C 1028.2 hPa SE 4.7 km/h 5.8 km/h 57% 0.0 mm CLR
08:45 2.0 °C -4.9 °C 1028.2 hPa SE 4.7 km/h 7.4 km/h 60% 0.0 mm CLR
08:50 1.7 °C -4.8 °C 1028.5 hPa SSE 4.7 km/h 7.4 km/h 62% 0.0 mm CLR
08:55 1.6 °C -4.7 °C 1028.5 hPa South 4.7 km/h 7.4 km/h 63% 0.0 mm CLR
09:00 1.5 °C -4.8 °C 1028.5 hPa South 4.8 km/h 8.0 km/h 63% 0.0 mm CLR
09:05 1.6 °C -4.7 °C 1028.6 hPa SSW 5.0 km/h 6.4 km/h 63% 0.0 mm CLR
09:10 1.7 °C -5.0 °C 1028.6 hPa SW 4.7 km/h 7.4 km/h 61% 0.0 mm CLR
09:15 2.2 °C -5.0 °C 1028.6 hPa South 4.7 km/h 7.4 km/h 59% 0.0 mm CLR
09:20 2.4 °C -4.8 °C 1028.8 hPa South 5.0 km/h 7.4 km/h 59% 0.0 mm CLR
09:25 2.7 °C -4.8 °C 1028.8 hPa SSW 5.0 km/h 7.4 km/h 58% 0.0 mm CLR
09:30 2.9 °C -5.1 °C 1028.8 hPa SE 4.7 km/h 7.4 km/h 56% 0.0 mm CLR
09:35 3.3 °C -4.2 °C 1029.0 hPa SE 4.7 km/h 5.6 km/h 58% 0.0 mm CLR
09:40 3.4 °C -4.3 °C 1029.0 hPa SSE 3.9 km/h 7.4 km/h 57% 0.0 mm CLR
09:45 3.4 °C -4.6 °C 1029.0 hPa SE 3.9 km/h 7.4 km/h 56% 0.0 mm CLR
09:50 3.6 °C -4.4 °C 1029.2 hPa South 5.0 km/h 7.4 km/h 56% 0.0 mm CLR
09:55 3.7 °C -4.3 °C 1029.2 hPa South 5.0 km/h 7.4 km/h 56% 0.0 mm CLR
10:00 3.8 °C -4.9 °C 1029.2 hPa SSW 3.2 km/h 8.0 km/h 53% 0.0 mm CLR
10:05 4.1 °C -4.9 °C 1029.4 hPa SW 4.7 km/h 7.6 km/h 52% 0.0 mm CLR
10:10 4.3 °C -4.9 °C 1029.4 hPa WSW 5.0 km/h 5.6 km/h 51% 0.0 mm CLR
10:15 4.6 °C -5.5 °C 1029.4 hPa SW 5.0 km/h 9.3 km/h 48% 0.0 mm CLR
10:20 4.8 °C -5.3 °C 1029.6 hPa WSW 5.8 km/h 5.6 km/h 48% 0.0 mm CLR
10:25 5.1 °C -5.3 °C 1029.6 hPa South 5.8 km/h 7.4 km/h 47% 0.0 mm CLR
10:30 5.3 °C -5.4 °C 1029.6 hPa WSW 4.7 km/h 7.4 km/h 46% 0.0 mm CLR
10:35 5.5 °C -5.2 °C 1029.7 hPa West 4.7 km/h 7.4 km/h 46% 0.0 mm CLR
10:40 5.8 °C -5.2 °C 1029.7 hPa SW 4.7 km/h 5.8 km/h 45% 0.0 mm CLR
10:45 6.1 °C -5.3 °C 1029.7 hPa SW 4.7 km/h 11.1 km/h 44% 0.0 mm CLR
10:50 6.2 °C -5.5 °C 1029.7 hPa SW 6.4 km/h 13.0 km/h 43% 0.0 mm CLR
10:55 6.3 °C -5.4 °C 1029.7 hPa SW 6.4 km/h 11.1 km/h 43% 0.0 mm CLR
11:00 6.4 °C -5.6 °C 1029.7 hPa SW 8.0 km/h 11.3 km/h 42% 0.0 mm CLR
11:05 6.7 °C -5.3 °C 1029.6 hPa South 6.9 km/h 12.2 km/h 42% 0.0 mm CLR
11:10 6.7 °C -5.3 °C 1029.6 hPa SW 6.9 km/h 13.0 km/h 42% 0.0 mm CLR
11:15 6.6 °C -5.4 °C 1029.6 hPa SW 6.9 km/h 11.1 km/h 42% 0.0 mm CLR
11:20 6.8 °C -5.2 °C 1029.5 hPa SSW 8.7 km/h 13.0 km/h 42% 0.0 mm CLR
11:25 7.0 °C -5.1 °C 1029.5 hPa SSW 8.7 km/h 14.0 km/h 42% 0.0 mm CLR
11:30 7.1 °C -4.9 °C 1029.5 hPa SSE 8.4 km/h 14.8 km/h 42% 0.0 mm CLR
11:35 7.3 °C -4.8 °C 1029.4 hPa WSW 8.4 km/h 9.3 km/h 42% 0.0 mm CLR
11:40 7.4 °C -5.0 °C 1029.4 hPa SSW 7.6 km/h 11.1 km/h 41% 0.0 mm CLR
11:45 7.7 °C -4.7 °C 1029.4 hPa SW 7.6 km/h 7.4 km/h 41% 0.0 mm CLR
11:50 7.8 °C -4.7 °C 1029.3 hPa SW 6.4 km/h 9.3 km/h 41% 0.0 mm CLR
11:55 8.0 °C -4.5 °C 1029.3 hPa SW 6.4 km/h 11.1 km/h 41% 0.0 mm CLR
12:00 8.2 °C -4.7 °C 1029.3 hPa SW 8.0 km/h 14.5 km/h 40% 0.0 mm CLR
12:05 8.2 °C -4.6 °C 1029.1 hPa West 6.4 km/h 11.1 km/h 40% 0.0 mm CLR
12:10 8.4 °C -4.4 °C 1029.1 hPa South 7.6 km/h 11.1 km/h 40% 0.0 mm CLR
12:15 8.6 °C -4.9 °C 1029.1 hPa West 7.6 km/h 13.0 km/h 38% 0.0 mm CLR
12:20 8.8 °C -4.8 °C 1028.8 hPa SW 7.6 km/h 11.1 km/h 38% 0.0 mm CLR
12:25 8.9 °C -5.0 °C 1028.8 hPa South 7.6 km/h 13.0 km/h 37% 0.0 mm CLR
12:30 9.2 °C -5.1 °C 1028.8 hPa WSW 6.9 km/h 9.3 km/h 36% 0.0 mm CLR
12:35 9.3 °C -5.1 °C 1028.5 hPa West 6.9 km/h 11.1 km/h 36% 0.0 mm CLR
12:40 9.4 °C -5.3 °C 1028.5 hPa South 6.4 km/h 9.3 km/h 35% 0.0 mm CLR
12:45 9.7 °C -5.1 °C 1028.5 hPa West 6.4 km/h 9.5 km/h 35% 0.0 mm CLR
12:50 9.8 °C -5.3 °C 1028.2 hPa WSW 6.4 km/h 13.0 km/h 34% 0.0 mm CLR
12:55 9.9 °C -5.3 °C 1028.2 hPa South 6.4 km/h 9.3 km/h 34% 0.0 mm CLR
13:00 10.0 °C -5.2 °C 1028.2 hPa SSW 8.0 km/h 11.3 km/h 34% 0.0 mm CLR
13:05 10.2 °C -5.0 °C 1028.0 hPa WSW 7.6 km/h 9.3 km/h 34% 0.0 mm CLR
13:10 10.3 °C -4.9 °C 1028.0 hPa SW 6.9 km/h 11.1 km/h 34% 0.0 mm CLR
13:15 10.5 °C -5.1 °C 1028.0 hPa SSW 6.9 km/h 9.5 km/h 33% 0.0 mm CLR
13:20 10.6 °C -5.1 °C 1027.8 hPa West 5.8 km/h 9.3 km/h 33% 0.0 mm CLR
13:25 10.7 °C -4.9 °C 1027.8 hPa SE 5.8 km/h 10.3 km/h 33% 0.0 mm CLR
13:30 10.8 °C -4.8 °C 1027.8 hPa SE 5.8 km/h 11.1 km/h 33% 0.0 mm CLR
13:35 11.1 °C -4.6 °C 1027.6 hPa SSE 5.8 km/h 7.4 km/h 33% 0.0 mm CLR
13:40 11.2 °C -4.5 °C 1027.6 hPa South 6.4 km/h 7.4 km/h 33% 0.0 mm CLR
13:45 11.4 °C -4.7 °C 1027.6 hPa SE 6.4 km/h 7.4 km/h 32% 0.0 mm CLR
13:50 11.5 °C -4.2 °C 1027.3 hPa WSW 5.0 km/h 9.3 km/h 33% 0.0 mm CLR
13:55 11.6 °C -4.2 °C 1027.3 hPa SW 5.0 km/h 7.4 km/h 33% 0.0 mm CLR
14:00 11.7 °C -4.1 °C 1027.3 hPa SW 4.8 km/h 11.3 km/h 33% 0.0 mm CLR
14:05 11.7 °C -4.1 °C 1027.1 hPa WNW 5.0 km/h 7.6 km/h 33% 0.0 mm CLR
14:10 11.7 °C -3.7 °C 1027.1 hPa SW 5.0 km/h 9.3 km/h 34% 0.0 mm CLR
14:15 11.8 °C -3.6 °C 1027.1 hPa ESE 5.0 km/h 3.7 km/h 34% 0.0 mm CLR
14:20 12.0 °C -3.4 °C 1026.8 hPa West 3.9 km/h 4.7 km/h 34% 0.0 mm CLR
14:25 12.3 °C -3.1 °C 1026.8 hPa SSW 3.9 km/h 6.9 km/h 34% 0.0 mm CLR
14:30 12.3 °C -2.7 °C 1026.8 hPa SSW 3.2 km/h 5.6 km/h 35% 0.0 mm CLR
14:35 12.5 °C -2.6 °C 1026.5 hPa South 3.2 km/h 7.4 km/h 35% 0.0 mm CLR
14:40 12.7 °C -2.0 °C 1026.5 hPa South 2.9 km/h 3.7 km/h 36% 0.0 mm CLR
14:45 12.8 °C -1.2 °C 1026.5 hPa SSW 2.9 km/h 7.6 km/h 38% 0.0 mm CLR
14:50 12.7 °C -0.9 °C 1026.4 hPa SSW 4.7 km/h 3.7 km/h 39% 0.0 mm CLR
14:55 12.8 °C -1.9 °C 1026.4 hPa WSW 4.7 km/h 7.4 km/h 36% 0.0 mm CLR
15:00 12.9 °C -1.8 °C 1026.4 hPa SW 3.2 km/h 6.4 km/h 36% 0.0 mm CLR
15:05 13.1 °C -2.1 °C 1026.3 hPa SSW 3.2 km/h 7.4 km/h 35% 0.0 mm CLR
15:10 13.1 °C -2.1 °C 1026.3 hPa SSW 3.2 km/h 3.7 km/h 35% 0.0 mm CLR
15:15 13.3 °C -2.7 °C 1026.3 hPa WNW 3.2 km/h 7.4 km/h 33% 0.0 mm CLR
15:20 13.3 °C -3.1 °C 1026.2 hPa WNW 3.2 km/h 7.4 km/h 32% 0.0 mm CLR
15:25 13.3 °C -3.1 °C 1026.2 hPa WSW 3.2 km/h 7.4 km/h 32% 0.0 mm CLR
15:30 13.2 °C -4.0 °C 1026.2 hPa WSW 4.7 km/h 3.7 km/h 30% 0.0 mm CLR
15:35 13.3 °C -3.9 °C 1025.9 hPa WNW 4.7 km/h 5.6 km/h 30% 0.0 mm CLR
15:40 13.4 °C -4.3 °C 1025.9 hPa WNW 3.2 km/h 4.7 km/h 29% 0.0 mm CLR
15:45 13.6 °C -3.7 °C 1025.9 hPa WNW 3.2 km/h 3.7 km/h 30% 0.0 mm CLR
15:50 13.7 °C -4.1 °C 1025.9 hPa WNW 2.9 km/h 5.6 km/h 29% 0.0 mm CLR
15:55 13.9 °C -3.9 °C 1025.9 hPa WNW 2.9 km/h 4.7 km/h 29% 0.0 mm CLR
16:00 14.1 °C -3.7 °C 1025.9 hPa West 3.2 km/h 6.4 km/h 29% 0.0 mm CLR
16:05 14.2 °C -3.6 °C 1025.8 hPa West 2.9 km/h   29% 0.0 mm CLR
16:10 14.3 °C -3.5 °C 1025.8 hPa West 2.9 km/h 3.7 km/h 29% 0.0 mm CLR
16:15 14.3 °C -4.0 °C 1025.8 hPa West 2.9 km/h 5.6 km/h 28% 0.0 mm CLR
16:20 14.3 °C -3.5 °C 1025.8 hPa WNW 2.9 km/h 5.6 km/h 29% 0.0 mm CLR
16:25 14.4 °C -3.9 °C 1025.8 hPa WNW 2.9 km/h 5.0 km/h 28% 0.0 mm CLR
16:30 14.4 °C -3.9 °C 1025.8 hPa WNW 2.9 km/h 3.7 km/h 28% 0.0 mm CLR
16:35 14.4 °C -3.9 °C 1025.7 hPa WNW 2.9 km/h 2.3 km/h 28% 0.0 mm CLR
16:40 14.6 °C -4.2 °C 1025.7 hPa WNW 2.3 km/h 5.6 km/h 27% 0.0 mm CLR
16:45 14.8 °C -3.6 °C 1025.7 hPa WNW 2.3 km/h 1.9 km/h 28% 0.0 mm CLR
16:50 14.8 °C -4.1 °C 1025.9 hPa WNW 2.3 km/h   27% 0.0 mm CLR
16:55 14.7 °C -4.1 °C 1025.9 hPa WNW 2.3 km/h 5.6 km/h 27% 0.0 mm CLR
17:00 14.6 °C -4.3 °C 1025.9 hPa WNW 1.6 km/h 4.8 km/h 27% 0.0 mm CLR
17:05 14.3 °C -4.5 °C 1025.8 hPa WNW 2.3 km/h 3.7 km/h 27% 0.0 mm CLR
17:10 14.2 °C -4.1 °C 1025.8 hPa WNW 2.9 km/h 1.9 km/h 28% 0.0 mm CLR
17:15 14.2 °C -4.1 °C 1025.8 hPa WNW 2.9 km/h 4.7 km/h 28% 0.0 mm CLR
17:20 14.2 °C -4.1 °C 1025.9 hPa WNW 2.3 km/h   28% 0.0 mm CLR
17:25 14.3 °C -4.0 °C 1025.9 hPa WNW 2.3 km/h   28% 0.0 mm CLR
17:30 14.3 °C -4.0 °C 1025.9 hPa Calm     28% 0.0 mm CLR
17:35 14.4 °C -3.9 °C 1026.0 hPa Calm   5.6 km/h 28% 0.0 mm CLR
17:40 14.2 °C -3.6 °C 1026.0 hPa WNW 2.3 km/h 5.6 km/h 29% 0.0 mm CLR
17:45 13.8 °C -3.9 °C 1026.0 hPa WNW 2.3 km/h 5.6 km/h 29% 0.0 mm CLR
17:50 13.6 °C -3.7 °C 1026.1 hPa WNW 3.9 km/h 5.6 km/h 30% 0.0 mm CLR
17:55 13.5 °C -3.8 °C 1026.1 hPa WNW 3.9 km/h 3.7 km/h 30% 0.0 mm CLR
18:00 13.3 °C -3.5 °C 1026.1 hPa WNW 3.2 km/h 4.8 km/h 31% 0.0 mm CLR
18:05 13.2 °C -3.6 °C 1026.1 hPa WNW 3.2 km/h 3.7 km/h 31% 0.0 mm CLR
18:10 13.1 °C -3.2 °C 1026.1 hPa ESE 2.9 km/h 7.4 km/h 32% 0.0 mm CLR
18:15 12.8 °C -3.1 °C 1026.1 hPa ESE 2.9 km/h 7.4 km/h 33% 0.0 mm CLR
18:20 12.6 °C -2.9 °C 1026.2 hPa ESE 3.9 km/h 5.8 km/h 34% 0.0 mm CLR
18:25 12.4 °C -2.7 °C 1026.2 hPa ESE 3.9 km/h 5.6 km/h 35% 0.0 mm CLR
18:30 12.2 °C -2.4 °C 1026.2 hPa ESE 3.9 km/h 4.7 km/h 36% 0.0 mm CLR
18:35 12.1 °C -2.2 °C 1026.3 hPa ESE 3.9 km/h 3.9 km/h 37% 0.0 mm CLR
18:40 11.9 °C -2.3 °C 1026.3 hPa ESE 3.2 km/h 3.7 km/h 37% 0.0 mm CLR
18:45 11.8 °C -2.1 °C 1026.3 hPa ESE 3.2 km/h 5.6 km/h 38% 0.0 mm CLR
18:50 11.7 °C -1.8 °C 1026.5 hPa ESE 2.9 km/h 3.7 km/h 39% 0.0 mm CLR
18:55 11.4 °C -1.7 °C 1026.5 hPa ESE 2.9 km/h 3.9 km/h 40% 0.0 mm CLR
19:00 11.3 °C -1.5 °C 1026.5 hPa ESE 3.2 km/h 4.8 km/h 41% 0.0 mm CLR
19:05 11.1 °C -1.3 °C 1026.7 hPa ESE 2.9 km/h 3.9 km/h 42% 0.0 mm CLR
19:10 10.9 °C -1.2 °C 1026.7 hPa ESE 2.3 km/h 7.4 km/h 43% 0.0 mm CLR
19:15 10.7 °C -1.4 °C 1026.7 hPa ESE 2.3 km/h 7.4 km/h 43% 0.0 mm CLR
19:20 10.5 °C -1.3 °C 1026.7 hPa ESE 3.9 km/h 7.4 km/h 44% 0.0 mm CLR
19:25 10.4 °C -1.1 °C 1026.7 hPa SE 3.9 km/h 9.3 km/h 45% 0.0 mm CLR
19:30 10.3 °C -1.1 °C 1026.7 hPa SE 5.0 km/h 3.9 km/h 45% 0.0 mm CLR
19:35 10.3 °C -0.8 °C 1026.7 hPa SE 5.0 km/h 1.9 km/h 46% 0.0 mm CLR
19:40 10.2 °C -0.9 °C 1026.7 hPa SE 2.3 km/h 3.7 km/h 46% 0.0 mm CLR
19:45 10.0 °C -1.4 °C 1026.7 hPa WSW 2.3 km/h 7.6 km/h 45% 0.0 mm CLR
19:50 9.8 °C -1.6 °C 1026.9 hPa WSW 3.9 km/h 7.4 km/h 45% 0.0 mm CLR
19:55 9.7 °C -2.0 °C 1026.9 hPa WSW 3.9 km/h 5.6 km/h 44% 0.0 mm CLR
20:00 9.8 °C -1.6 °C 1026.9 hPa WSW 3.2 km/h 6.4 km/h 45% 0.0 mm CLR
20:05 9.7 °C -1.7 °C 1026.9 hPa WSW 4.7 km/h 7.4 km/h 45% 0.0 mm CLR
20:10 9.7 °C -1.7 °C 1026.9 hPa SW 3.9 km/h 7.4 km/h 45% 0.0 mm CLR
20:15 9.6 °C -1.4 °C 1026.9 hPa WSW 3.9 km/h 7.4 km/h 46% 0.0 mm CLR
20:20 9.5 °C -1.6 °C 1027.0 hPa WSW 3.9 km/h 7.4 km/h 46% 0.0 mm CLR
20:25 9.3 °C -1.4 °C 1027.0 hPa WSW 3.9 km/h 5.6 km/h 47% 0.0 mm CLR
20:30 9.2 °C -1.3 °C 1027.0 hPa WSW 4.7 km/h 7.4 km/h 48% 0.0 mm CLR
20:35 9.1 °C -1.3 °C 1026.9 hPa WSW 4.7 km/h 3.7 km/h 48% 0.0 mm CLR
20:40 9.0 °C -0.9 °C 1026.9 hPa WSW 3.2 km/h 5.6 km/h 50% 0.0 mm CLR
20:45 8.9 °C -1.0 °C 1026.9 hPa WSW 3.2 km/h 5.6 km/h 50% 0.0 mm CLR
20:50 8.9 °C -0.7 °C 1027.0 hPa WSW 3.9 km/h 7.4 km/h 51% 0.0 mm CLR
20:55 8.8 °C -0.6 °C 1027.0 hPa South 3.9 km/h 7.4 km/h 52% 0.0 mm CLR
21:00 8.7 °C -0.6 °C 1027.0 hPa South 4.8 km/h 8.0 km/h 52% 0.0 mm CLR
21:05 8.6 °C -0.4 °C 1027.0 hPa South 5.0 km/h 7.4 km/h 53% 0.0 mm CLR
21:10 8.5 °C -0.6 °C 1027.0 hPa South 5.0 km/h 7.4 km/h 53% 0.0 mm CLR
21:15 8.4 °C -0.6 °C 1027.0 hPa South 5.0 km/h 4.7 km/h 53% 0.0 mm CLR
21:20 8.4 °C -0.4 °C 1027.1 hPa South 3.9 km/h 3.9 km/h 54% 0.0 mm CLR
21:25 8.4 °C -0.1 °C 1027.1 hPa South 3.9 km/h   55% 0.0 mm CLR
21:30 8.3 °C -0.2 °C 1027.1 hPa South 2.3 km/h 7.4 km/h 55% 0.0 mm CLR
21:35 8.2 °C -0.3 °C 1027.2 hPa South 2.3 km/h 7.4 km/h 55% 0.0 mm CLR
21:40 8.2 °C -0.3 °C 1027.2 hPa South 4.7 km/h 3.7 km/h 55% 0.0 mm CLR
21:45 8.1 °C -0.2 °C 1027.2 hPa South 4.7 km/h 5.6 km/h 56% 0.0 mm CLR
21:50 8.0 °C -0.3 °C 1027.3 hPa South 3.2 km/h 5.6 km/h 56% 0.0 mm CLR
21:55 7.9 °C -0.3 °C 1027.3 hPa South 3.2 km/h 3.2 km/h 56% 0.0 mm CLR
22:00 7.9 °C -0.3 °C 1027.3 hPa South 1.6 km/h 4.8 km/h 56% 0.0 mm CLR
22:05 7.8 °C -0.2 °C 1027.3 hPa South 2.3 km/h 7.4 km/h 57% 0.0 mm CLR
22:10 7.6 °C -0.4 °C 1027.3 hPa SSE 3.2 km/h 9.3 km/h 57% 0.0 mm CLR
22:15 7.2 °C -0.5 °C 1027.3 hPa SE 3.2 km/h 9.3 km/h 58% 0.0 mm CLR
22:20 6.9 °C -0.6 °C 1027.3 hPa SW 6.9 km/h 9.3 km/h 59% 0.0 mm CLR
22:25 6.8 °C -0.7 °C 1027.3 hPa WSW 6.9 km/h 11.1 km/h 59% 0.0 mm CLR
22:30 6.9 °C -0.6 °C 1027.3 hPa WSW 7.6 km/h 9.3 km/h 59% 0.0 mm CLR
22:35 6.9 °C -0.8 °C 1027.3 hPa WSW 7.6 km/h 7.4 km/h 58% 0.0 mm CLR
22:40 6.9 °C -0.8 °C 1027.3 hPa WSW 6.4 km/h 7.4 km/h 58% 0.0 mm CLR
22:45 6.8 °C -0.9 °C 1027.3 hPa WSW 6.4 km/h 5.6 km/h 58% 0.0 mm CLR
22:50 6.9 °C -0.8 °C 1027.3 hPa South 3.9 km/h 7.4 km/h 58% 0.0 mm CLR
22:55 6.8 °C -0.7 °C 1027.3 hPa South 3.9 km/h 7.4 km/h 59% 0.0 mm CLR
23:00 6.7 °C -0.8 °C 1027.3 hPa South 4.8 km/h 9.7 km/h 59% 0.0 mm CLR
23:05 6.4 °C -0.8 °C 1027.4 hPa South 5.0 km/h 7.4 km/h 60% 0.0 mm CLR
23:10 6.4 °C -0.6 °C 1027.4 hPa South 5.8 km/h 7.4 km/h 61% 0.0 mm CLR
23:15 6.4 °C -0.3 °C 1027.4 hPa South 5.8 km/h 7.4 km/h 62% 0.0 mm CLR
23:20 6.4 °C -0.3 °C 1027.5 hPa South 5.0 km/h 7.4 km/h 62% 0.0 mm CLR
23:25 6.4 °C -0.3 °C 1027.5 hPa South 5.0 km/h 9.3 km/h 62% 0.0 mm CLR
23:30 6.3 °C -0.2 °C 1027.5 hPa South 6.4 km/h 11.1 km/h 63% 0.0 mm CLR
23:35 6.2 °C -0.3 °C 1027.3 hPa South 6.4 km/h 14.8 km/h 63% 0.0 mm CLR
23:40 6.1 °C -0.2 °C 1027.3 hPa SSW 9.5 km/h 11.1 km/h 64% 0.0 mm CLR
23:45 6.0 °C -0.3 °C 1027.3 hPa South 9.5 km/h 11.1 km/h 64% 0.0 mm CLR
23:50 6.0 °C -0.3 °C 1027.2 hPa South 8.4 km/h 9.3 km/h 64% 0.0 mm CLR
23:55 6.0 °C -0.3 °C 1027.2 hPa South 8.4 km/h 9.3 km/h 64% 0.0 mm CLR
Murcia-Puente Tocinos, España
Compliments of Weather Underground - 2.5 mb

La estación de MeteoMurcia.com, publica sus datos en los siguientes proyectos:

Weather Underground PWS IMURCIAP2 Meteoclimatic www.awekas.at

W3Counter
Web Analytics